Cottonwood, California
Current Conditions -  °F | °C
As of 8:53 PM on Friday 24 Oct 2014 (Local Time) from KRDD Reporting Station
Clear Clear  
Wind Chill: 61°   Ceiling: Unl
Heat Index: 61°   Visibility: 10mi
Dew Point: 56°   Wind: 5mph
Humidity: 83%   Direction: 20°NNE
Pressure: 29.82"   Gusts: NA
Location:  40.39°N, 122.28°W
Report Text: KRDD 250353Z 02004KT 10SM CLR 16/13 A2982 RMK AO2 SLP095 T01610133
Loading
Personal Weather Stations






























Interactive Weather Map
Tropical Storm Tracking
New forecast layout! Learn more

10-Day Weather Forecast

Advertisements
Track Severe Weather on mobile